ZQN weather

Queenstown International Airport
Queenstown, Otago Region, New Zealand

Public forecast

Using degrees Celsius for public forecast. Weather courtesy of forecast.io.

METAR (pilot weather report)

Closest report is Christchurch International Airport, 187.2 nm (346.7 km) ENE. Retrieved 2019/03/20 03:00 UTC (7 minutes ago):

NZCH 200300Z AUTO 07011KT 030V100 9999 BKN023/// OVC029/// 20/14 Q1026 NOSIG

TAF (pilot weather forecast)

Forecast is more than 12 hours old.

Retrieved 2019/03/13 17:15 UTC (6 days ago):

TAF NZQN 131607Z 1317/1411 03005KT 9999 SCT040 BECMG 1401/1403 18010KT BECMG 1408/1410 03005KT